PWSweather.com
Personal Weather Stations
Station Observations
DEKREUPEL
Wsv De Kreupel, AndijkNL 1619 JV

Wsv De KreupelAndijkNL 1619 JV

Lat: 52.7417364, Lon: 5.1809356

Elevation: 33

Station Type: Rainwise MKiii LR

High Low Average
Temperature 60.2°F15.7°C 53.2°F11.8°C 55.6°F13.1°C
Dew Point 88.2°F31.2°C 80.2°F26.8°C 83.0°F28.3°C
Winds 14.9 mph 24.0 kmh Calm Calm 1.0 mph SW1.6 kmh SW
Wind Gusts 17.9 mph28.8 kmh -- 1.0 mph1.6 kmh
Humidity - - -
Pressure 29.97 in1014.9 mb 29.65 in1004.1 mb -
Precipitation 0.11 in2.8 mm - -
Hour Temp Dew Point Humidity Winds Wind Gusts Pressure Precip Precip Rate Daily Precip Total
12:04 AM 54.7°F12.6°C 81.9°F27.7°C - Calm Calm -- 29.97 in1014.9 mb 0.00 in0.0 mm 0.00 in0.0 mm 0.00 in0.0 mm
12:09 AM 54.8°F12.7°C 82.1°F27.8°C - Calm Calm -- 29.97 in1014.9 mb 0.00 in0.0 mm 0.00 in0.0 mm 0.00 in0.0 mm
12:14 AM 54.8°F12.7°C 82.1°F27.8°C - Calm Calm -- 29.97 in1014.9 mb 0.00 in0.0 mm 0.00 in0.0 mm 0.00 in0.0 mm
12:19 AM 54.8°F12.7°C 82.1°F27.8°C - Calm Calm -- 29.97 in1014.9 mb 0.00 in0.0 mm 0.00 in0.0 mm 0.00 in0.0 mm
12:24 AM 54.8°F12.7°C 82.0°F27.8°C - Calm Calm -- 29.97 in1014.9 mb 0.00 in0.0 mm 0.00 in0.0 mm 0.00 in0.0 mm
12:29 AM 54.7°F12.6°C 81.9°F27.7°C - Calm Calm -- 29.97 in1014.9 mb 0.00 in0.0 mm 0.00 in0.0 mm 0.00 in0.0 mm
12:34 AM 54.7°F12.6°C 82.0°F27.8°C - Calm Calm -- 29.97 in1014.9 mb 0.00 in0.0 mm 0.00 in0.0 mm 0.00 in0.0 mm
12:39 AM 54.7°F12.6°C 82.0°F27.8°C - Calm Calm -- 29.96 in1014.6 mb 0.00 in0.0 mm 0.00 in0.0 mm 0.00 in0.0 mm
12:44 AM 54.7°F12.6°C 81.9°F27.7°C - Calm Calm -- 29.96 in1014.6 mb 0.00 in0.0 mm 0.00 in0.0 mm 0.00 in0.0 mm
12:49 AM 54.7°F12.6°C 82.0°F27.8°C - Calm Calm -- 29.96 in1014.6 mb 0.00 in0.0 mm 0.00 in0.0 mm 0.00 in0.0 mm
12:54 AM 54.7°F12.6°C 82.0°F27.8°C - Calm Calm -- 29.96 in1014.6 mb 0.00 in0.0 mm 0.00 in0.0 mm 0.00 in0.0 mm
12:59 AM 54.7°F12.6°C 82.0°F27.8°C - Calm Calm -- 29.96 in1014.6 mb 0.00 in0.0 mm 0.00 in0.0 mm 0.00 in0.0 mm
01:04 AM 54.6°F12.6°C 81.9°F27.7°C - Calm Calm -- 29.96 in1014.6 mb 0.00 in0.0 mm 0.00 in0.0 mm 0.00 in0.0 mm
01:10 AM 54.5°F12.5°C 81.7°F27.6°C - Calm Calm -- 29.95 in1014.2 mb 0.00 in0.0 mm 0.00 in0.0 mm 0.00 in0.0 mm
01:14 AM 54.5°F12.5°C 81.7°F27.6°C - Calm Calm -- 29.95 in1014.2 mb 0.00 in0.0 mm 0.00 in0.0 mm 0.00 in0.0 mm
01:19 AM 54.5°F12.5°C 81.6°F27.6°C - Calm Calm -- 29.95 in1014.2 mb 0.00 in0.0 mm 0.00 in0.0 mm 0.00 in0.0 mm
01:25 AM 54.4°F12.4°C 81.6°F27.6°C - Calm Calm -- 29.95 in1014.2 mb 0.00 in0.0 mm 0.00 in0.0 mm 0.00 in0.0 mm
01:29 AM 54.3°F12.4°C 81.5°F27.5°C - Calm Calm -- 29.95 in1014.2 mb 0.00 in0.0 mm 0.00 in0.0 mm 0.00 in0.0 mm
01:34 AM 54.2°F12.3°C 81.3°F27.4°C - Calm Calm -- 29.94 in1013.9 mb 0.00 in0.0 mm 0.00 in0.0 mm 0.00 in0.0 mm
01:39 AM 54.2°F12.3°C 81.4°F27.4°C - Calm Calm -- 29.94 in1013.9 mb 0.00 in0.0 mm 0.00 in0.0 mm 0.00 in0.0 mm
01:44 AM 54.2°F12.3°C 81.3°F27.4°C - Calm Calm -- 29.94 in1013.9 mb 0.00 in0.0 mm 0.00 in0.0 mm 0.00 in0.0 mm
01:49 AM 54.2°F12.3°C 81.4°F27.4°C - Calm Calm -- 29.94 in1013.9 mb 0.00 in0.0 mm 0.00 in0.0 mm 0.00 in0.0 mm
01:54 AM 54.2°F12.3°C 81.3°F27.4°C - Calm Calm -- 29.94 in1013.9 mb 0.00 in0.0 mm 0.00 in0.0 mm 0.00 in0.0 mm
02:00 AM 54.2°F12.3°C 81.4°F27.4°C - Calm Calm -- 29.94 in1013.9 mb 0.00 in0.0 mm 0.00 in0.0 mm 0.00 in0.0 mm
02:04 AM 54.2°F12.3°C 81.4°F27.4°C - Calm Calm -- 29.94 in1013.9 mb 0.00 in0.0 mm 0.00 in0.0 mm 0.00 in0.0 mm
02:09 AM 54.1°F12.3°C 81.3°F27.4°C - Calm Calm -- 29.94 in1013.9 mb 0.00 in0.0 mm 0.00 in0.0 mm 0.00 in0.0 mm
02:14 AM 54.1°F12.3°C 81.2°F27.3°C - Calm Calm -- 29.94 in1013.9 mb 0.00 in0.0 mm 0.00 in0.0 mm 0.00 in0.0 mm
02:19 AM 54.1°F12.3°C 81.3°F27.4°C - Calm Calm -- 29.93 in1013.5 mb 0.00 in0.0 mm 0.00 in0.0 mm 0.00 in0.0 mm
02:24 AM 53.8°F12.1°C 81.0°F27.2°C - Calm Calm -- 29.93 in1013.5 mb 0.00 in0.0 mm 0.00 in0.0 mm 0.00 in0.0 mm
02:29 AM 53.8°F12.1°C 81.0°F27.2°C - Calm Calm -- 29.93 in1013.5 mb 0.00 in0.0 mm 0.00 in0.0 mm 0.00 in0.0 mm
02:34 AM 53.7°F12.1°C 80.8°F27.1°C - Calm Calm -- 29.93 in1013.5 mb 0.00 in0.0 mm 0.00 in0.0 mm 0.00 in0.0 mm
02:40 AM 53.7°F12.1°C 80.8°F27.1°C - Calm Calm -- 29.93 in1013.5 mb 0.00 in0.0 mm 0.00 in0.0 mm 0.00 in0.0 mm
02:44 AM 53.6°F12.0°C 80.7°F27.1°C - Calm Calm -- 29.92 in1013.2 mb 0.00 in0.0 mm 0.00 in0.0 mm 0.00 in0.0 mm
02:49 AM 53.6°F12.0°C 80.7°F27.1°C - Calm Calm -- 29.92 in1013.2 mb 0.00 in0.0 mm 0.00 in0.0 mm 0.00 in0.0 mm
02:55 AM 53.6°F12.0°C 80.7°F27.1°C - Calm Calm -- 29.92 in1013.2 mb 0.00 in0.0 mm 0.00 in0.0 mm 0.00 in0.0 mm
02:59 AM 53.6°F12.0°C 80.7°F27.1°C - Calm Calm -- 29.91 in1012.9 mb 0.00 in0.0 mm 0.00 in0.0 mm 0.00 in0.0 mm
03:04 AM 53.6°F12.0°C 80.6°F27.0°C - Calm Calm -- 29.91 in1012.9 mb 0.00 in0.0 mm 0.00 in0.0 mm 0.00 in0.0 mm
03:09 AM 53.6°F12.0°C 80.6°F27.0°C - Calm Calm -- 29.91 in1012.9 mb 0.00 in0.0 mm 0.00 in0.0 mm 0.00 in0.0 mm
03:15 AM 53.6°F12.0°C 80.6°F27.0°C - Calm Calm -- 29.91 in1012.9 mb 0.00 in0.0 mm 0.00 in0.0 mm 0.00 in0.0 mm
03:19 AM 53.6°F12.0°C 80.7°F27.1°C - Calm Calm -- 29.91 in1012.9 mb 0.00 in0.0 mm 0.00 in0.0 mm 0.00 in0.0 mm
03:24 AM 53.6°F12.0°C 80.7°F27.1°C - Calm Calm -- 29.91 in1012.9 mb 0.00 in0.0 mm 0.00 in0.0 mm 0.00 in0.0 mm
03:29 AM 53.7°F12.1°C 80.7°F27.1°C - Calm Calm -- 29.91 in1012.9 mb 0.00 in0.0 mm 0.00 in0.0 mm 0.00 in0.0 mm
03:34 AM 53.7°F12.1°C 80.8°F27.1°C - Calm Calm -- 29.90 in1012.5 mb 0.00 in0.0 mm 0.00 in0.0 mm 0.00 in0.0 mm
03:39 AM 53.6°F12.0°C 80.6°F27.0°C - Calm Calm -- 29.90 in1012.5 mb 0.00 in0.0 mm 0.00 in0.0 mm 0.00 in0.0 mm
03:44 AM 53.6°F12.0°C 80.7°F27.1°C - Calm Calm -- 29.90 in1012.5 mb 0.00 in0.0 mm 0.00 in0.0 mm 0.00 in0.0 mm
03:49 AM 53.6°F12.0°C 80.6°F27.0°C - Calm Calm -- 29.90 in1012.5 mb 0.00 in0.0 mm 0.00 in0.0 mm 0.00 in0.0 mm
03:54 AM 53.6°F12.0°C 80.7°F27.1°C - Calm Calm -- 29.89 in1012.2 mb 0.00 in0.0 mm 0.00 in0.0 mm 0.00 in0.0 mm
03:59 AM 53.6°F12.0°C 80.7°F27.1°C - Calm Calm -- 29.89 in1012.2 mb 0.00 in0.0 mm 0.00 in0.0 mm 0.00 in0.0 mm
04:04 AM 53.6°F12.0°C 80.7°F27.1°C - Calm Calm -- 29.89 in1012.2 mb 0.00 in0.0 mm 0.00 in0.0 mm 0.00 in0.0 mm
04:10 AM 53.6°F12.0°C 80.7°F27.1°C - Calm Calm -- 29.89 in1012.2 mb 0.00 in0.0 mm 0.00 in0.0 mm 0.00 in0.0 mm
04:14 AM 53.6°F12.0°C 80.7°F27.1°C - Calm Calm -- 29.89 in1012.2 mb 0.00 in0.0 mm 0.00 in0.0 mm 0.00 in0.0 mm
04:20 AM 53.6°F12.0°C 80.6°F27.0°C - Calm Calm -- 29.89 in1012.2 mb 0.00 in0.0 mm 0.00 in0.0 mm 0.00 in0.0 mm
04:24 AM 53.5°F11.9°C 80.6°F27.0°C - Calm Calm -- 29.89 in1012.2 mb 0.00 in0.0 mm 0.00 in0.0 mm 0.00 in0.0 mm
04:29 AM 53.5°F11.9°C 80.6°F27.0°C - Calm Calm -- 29.89 in1012.2 mb 0.00 in0.0 mm 0.00 in0.0 mm 0.00 in0.0 mm
04:35 AM 53.5°F11.9°C 80.6°F27.0°C - Calm Calm -- 29.89 in1012.2 mb 0.00 in0.0 mm 0.00 in0.0 mm 0.00 in0.0 mm
04:39 AM 53.5°F11.9°C 80.6°F27.0°C - Calm Calm -- 29.89 in1012.2 mb 0.00 in0.0 mm 0.00 in0.0 mm 0.00 in0.0 mm
04:44 AM 53.6°F12.0°C 80.7°F27.1°C - Calm Calm -- 29.89 in1012.2 mb 0.00 in0.0 mm 0.00 in0.0 mm 0.00 in0.0 mm
04:49 AM 53.6°F12.0°C 80.6°F27.0°C - Calm Calm -- 29.88 in1011.9 mb 0.00 in0.0 mm 0.00 in0.0 mm 0.00 in0.0 mm
04:54 AM 53.6°F12.0°C 80.7°F27.1°C - Calm Calm -- 29.88 in1011.9 mb 0.00 in0.0 mm 0.00 in0.0 mm 0.00 in0.0 mm
04:59 AM 53.6°F12.0°C 80.7°F27.1°C - Calm Calm -- 29.88 in1011.9 mb 0.00 in0.0 mm 0.00 in0.0 mm 0.00 in0.0 mm
05:04 AM 53.6°F12.0°C 80.6°F27.0°C - Calm Calm -- 29.88 in1011.9 mb 0.00 in0.0 mm 0.00 in0.0 mm 0.00 in0.0 mm
05:09 AM 53.6°F12.0°C 80.7°F27.1°C - Calm Calm -- 29.88 in1011.9 mb 0.00 in0.0 mm 0.00 in0.0 mm 0.00 in0.0 mm
05:14 AM 53.6°F12.0°C 80.7°F27.1°C - Calm Calm -- 29.88 in1011.9 mb 0.00 in0.0 mm 0.00 in0.0 mm 0.00 in0.0 mm
05:19 AM 53.6°F12.0°C 80.6°F27.0°C - Calm Calm -- 29.87 in1011.5 mb 0.00 in0.0 mm 0.00 in0.0 mm 0.00 in0.0 mm
05:24 AM 53.6°F12.0°C 80.6°F27.0°C - Calm Calm -- 29.87 in1011.5 mb 0.00 in0.0 mm 0.00 in0.0 mm 0.00 in0.0 mm
05:29 AM 53.6°F12.0°C 80.6°F27.0°C - Calm Calm -- 29.87 in1011.5 mb 0.00 in0.0 mm 0.00 in0.0 mm 0.00 in0.0 mm
05:34 AM 53.6°F12.0°C 80.7°F27.1°C - Calm Calm -- 29.87 in1011.5 mb 0.00 in0.0 mm 0.00 in0.0 mm 0.00 in0.0 mm
05:39 AM 53.5°F11.9°C 80.5°F26.9°C - Calm Calm -- 29.87 in1011.5 mb 0.00 in0.0 mm 0.00 in0.0 mm 0.00 in0.0 mm
05:44 AM 53.3°F11.8°C 80.3°F26.8°C - Calm Calm -- 29.87 in1011.5 mb 0.00 in0.0 mm 0.00 in0.0 mm 0.00 in0.0 mm
05:49 AM 53.2°F11.8°C 80.3°F26.8°C - Calm Calm -- 29.87 in1011.5 mb 0.00 in0.0 mm 0.00 in0.0 mm 0.00 in0.0 mm
05:54 AM 53.2°F11.8°C 80.3°F26.8°C - Calm Calm -- 29.87 in1011.5 mb 0.00 in0.0 mm 0.00 in0.0 mm 0.00 in0.0 mm
05:59 AM 53.2°F11.8°C 80.3°F26.8°C - Calm Calm -- 29.87 in1011.5 mb 0.00 in0.0 mm 0.00 in0.0 mm 0.00 in0.0 mm
06:04 AM 53.2°F11.8°C 80.3°F26.8°C - Calm Calm -- 29.86 in1011.2 mb 0.00 in0.0 mm 0.00 in0.0 mm 0.00 in0.0 mm
06:09 AM 53.2°F11.8°C 80.3°F26.8°C - Calm Calm -- 29.86 in1011.2 mb 0.00 in0.0 mm 0.00 in0.0 mm 0.00 in0.0 mm
06:14 AM 53.2°F11.8°C 80.2°F26.8°C - Calm Calm -- 29.86 in1011.2 mb 0.00 in0.0 mm 0.00 in0.0 mm 0.00 in0.0 mm
06:19 AM 53.3°F11.8°C 80.4°F26.9°C - Calm Calm -- 29.86 in1011.2 mb 0.00 in0.0 mm 0.00 in0.0 mm 0.00 in0.0 mm
06:24 AM 53.3°F11.8°C 80.4°F26.9°C - Calm Calm -- 29.86 in1011.2 mb 0.00 in0.0 mm 0.00 in0.0 mm 0.00 in0.0 mm
06:29 AM 53.5°F11.9°C 80.6°F27.0°C - Calm Calm -- 29.86 in1011.2 mb 0.00 in0.0 mm 0.00 in0.0 mm 0.00 in0.0 mm
06:34 AM 53.5°F11.9°C 80.6°F27.0°C - Calm Calm -- 29.86 in1011.2 mb 0.00 in0.0 mm 0.00 in0.0 mm 0.00 in0.0 mm
06:39 AM 53.5°F11.9°C 80.6°F27.0°C - Calm Calm -- 29.86 in1011.2 mb 0.00 in0.0 mm 0.00 in0.0 mm 0.00 in0.0 mm
06:44 AM 53.5°F11.9°C 80.5°F26.9°C - Calm Calm -- 29.86 in1011.2 mb 0.00 in0.0 mm 0.00 in0.0 mm 0.00 in0.0 mm
06:49 AM 53.3°F11.8°C 80.4°F26.9°C - Calm Calm -- 29.85 in1010.8 mb 0.00 in0.0 mm 0.00 in0.0 mm 0.00 in0.0 mm
06:55 AM 53.3°F11.8°C 80.4°F26.9°C - Calm Calm -- 29.85 in1010.8 mb 0.00 in0.0 mm 0.00 in0.0 mm 0.00 in0.0 mm
06:59 AM 53.3°F11.8°C 80.4°F26.9°C - Calm Calm -- 29.85 in1010.8 mb 0.00 in0.0 mm 0.00 in0.0 mm 0.00 in0.0 mm
07:04 AM 53.4°F11.9°C 80.5°F26.9°C - Calm Calm -- 29.85 in1010.8 mb 0.00 in0.0 mm 0.00 in0.0 mm 0.00 in0.0 mm
07:09 AM 53.3°F11.8°C 80.4°F26.9°C - Calm Calm -- 29.85 in1010.8 mb 0.00 in0.0 mm 0.00 in0.0 mm 0.00 in0.0 mm
07:14 AM 53.3°F11.8°C 80.4°F26.9°C - Calm Calm -- 29.85 in1010.8 mb 0.00 in0.0 mm 0.00 in0.0 mm 0.00 in0.0 mm
07:19 AM 53.3°F11.8°C 80.4°F26.9°C - Calm Calm -- 29.85 in1010.8 mb 0.00 in0.0 mm 0.00 in0.0 mm 0.00 in0.0 mm
07:24 AM 53.3°F11.8°C 80.4°F26.9°C - Calm Calm -- 29.85 in1010.8 mb 0.00 in0.0 mm 0.00 in0.0 mm 0.00 in0.0 mm
07:29 AM 53.3°F11.8°C 80.4°F26.9°C - Calm Calm -- 29.84 in1010.5 mb 0.00 in0.0 mm 0.00 in0.0 mm 0.00 in0.0 mm
07:34 AM 53.2°F11.8°C 80.2°F26.8°C - Calm Calm -- 29.84 in1010.5 mb 0.00 in0.0 mm 0.00 in0.0 mm 0.00 in0.0 mm
07:39 AM 53.2°F11.8°C 80.2°F26.8°C - Calm Calm -- 29.84 in1010.5 mb 0.00 in0.0 mm 0.00 in0.0 mm 0.00 in0.0 mm
07:44 AM 53.2°F11.8°C 80.3°F26.8°C - Calm Calm -- 29.84 in1010.5 mb 0.00 in0.0 mm 0.00 in0.0 mm 0.00 in0.0 mm
07:49 AM 53.2°F11.8°C 80.2°F26.8°C - Calm Calm -- 29.84 in1010.5 mb 0.00 in0.0 mm 0.00 in0.0 mm 0.00 in0.0 mm
07:54 AM 53.2°F11.8°C 80.3°F26.8°C - Calm Calm -- 29.84 in1010.5 mb 0.00 in0.0 mm 0.00 in0.0 mm 0.00 in0.0 mm
07:59 AM 53.2°F11.8°C 80.2°F26.8°C - Calm Calm -- 29.84 in1010.5 mb 0.00 in0.0 mm 0.00 in0.0 mm 0.00 in0.0 mm
08:04 AM 53.2°F11.8°C 80.3°F26.8°C - Calm Calm -- 29.84 in1010.5 mb 0.00 in0.0 mm 0.00 in0.0 mm 0.00 in0.0 mm
08:09 AM 53.3°F11.8°C 80.4°F26.9°C - Calm Calm -- 29.84 in1010.5 mb 0.00 in0.0 mm 0.00 in0.0 mm 0.00 in0.0 mm
08:14 AM 53.4°F11.9°C 80.5°F26.9°C - Calm Calm -- 29.84 in1010.5 mb 0.00 in0.0 mm 0.00 in0.0 mm 0.00 in0.0 mm
08:19 AM 53.3°F11.8°C 80.4°F26.9°C - Calm Calm -- 29.84 in1010.5 mb 0.00 in0.0 mm 0.00 in0.0 mm 0.00 in0.0 mm
08:24 AM 53.3°F11.8°C 80.3°F26.8°C - Calm Calm -- 29.84 in1010.5 mb 0.00 in0.0 mm 0.00 in0.0 mm 0.00 in0.0 mm
08:29 AM 53.3°F11.8°C 80.4°F26.9°C - Calm Calm -- 29.84 in1010.5 mb 0.00 in0.0 mm 0.00 in0.0 mm 0.00 in0.0 mm
08:34 AM 53.3°F11.8°C 80.4°F26.9°C - Calm Calm -- 29.84 in1010.5 mb 0.00 in0.0 mm 0.00 in0.0 mm 0.00 in0.0 mm
08:39 AM 53.5°F11.9°C 80.6°F27.0°C - Calm Calm -- 29.83 in1010.2 mb 0.00 in0.0 mm 0.00 in0.0 mm 0.00 in0.0 mm
08:45 AM 53.5°F11.9°C 80.5°F26.9°C - Calm Calm -- 29.83 in1010.2 mb 0.00 in0.0 mm 0.00 in0.0 mm 0.00 in0.0 mm
08:49 AM 53.5°F11.9°C 80.6°F27.0°C - Calm Calm -- 29.83 in1010.2 mb 0.00 in0.0 mm 0.00 in0.0 mm 0.00 in0.0 mm
08:54 AM 53.5°F11.9°C 80.6°F27.0°C - Calm Calm -- 29.83 in1010.2 mb 0.00 in0.0 mm 0.00 in0.0 mm 0.00 in0.0 mm
08:59 AM 53.6°F12.0°C 80.7°F27.1°C - Calm Calm -- 29.83 in1010.2 mb 0.00 in0.0 mm 0.00 in0.0 mm 0.00 in0.0 mm
09:04 AM 53.6°F12.0°C 80.7°F27.1°C - Calm Calm -- 29.83 in1010.2 mb 0.00 in0.0 mm 0.00 in0.0 mm 0.00 in0.0 mm
09:09 AM 53.6°F12.0°C 80.7°F27.1°C - Calm Calm -- 29.83 in1010.2 mb 0.00 in0.0 mm 0.00 in0.0 mm 0.00 in0.0 mm
09:15 AM 53.6°F12.0°C 80.6°F27.0°C - Calm Calm -- 29.83 in1010.2 mb 0.00 in0.0 mm 0.00 in0.0 mm 0.00 in0.0 mm
09:19 AM 53.6°F12.0°C 80.6°F27.0°C - Calm Calm -- 29.83 in1010.2 mb 0.00 in0.0 mm 0.00 in0.0 mm 0.00 in0.0 mm
09:24 AM 53.6°F12.0°C 80.7°F27.1°C - Calm Calm -- 29.83 in1010.2 mb 0.00 in0.0 mm 0.00 in0.0 mm 0.00 in0.0 mm
09:30 AM 53.6°F12.0°C 80.7°F27.1°C - Calm Calm -- 29.82 in1009.8 mb 0.00 in0.0 mm 0.00 in0.0 mm 0.00 in0.0 mm
09:34 AM 53.6°F12.0°C 80.6°F27.0°C - Calm Calm -- 29.82 in1009.8 mb 0.00 in0.0 mm 0.00 in0.0 mm 0.00 in0.0 mm
09:39 AM 53.7°F12.1°C 80.8°F27.1°C - Calm Calm -- 29.82 in1009.8 mb 0.00 in0.0 mm 0.00 in0.0 mm 0.00 in0.0 mm
09:44 AM 53.7°F12.1°C 80.8°F27.1°C - Calm Calm -- 29.82 in1009.8 mb 0.00 in0.0 mm 0.00 in0.0 mm 0.00 in0.0 mm
09:49 AM 53.7°F12.1°C 80.7°F27.1°C - Calm Calm -- 29.82 in1009.8 mb 0.00 in0.0 mm 0.00 in0.0 mm 0.00 in0.0 mm
09:54 AM 53.7°F12.1°C 80.8°F27.1°C - Calm Calm -- 29.82 in1009.8 mb 0.00 in0.0 mm 0.00 in0.0 mm 0.01 in0.3 mm
10:00 AM 53.7°F12.1°C 80.7°F27.1°C - Calm Calm -- 29.81 in1009.5 mb 0.00 in0.0 mm 0.00 in0.0 mm 0.01 in0.3 mm
10:04 AM 53.7°F12.1°C 80.7°F27.1°C - Calm Calm -- 29.81 in1009.5 mb 0.00 in0.0 mm 0.00 in0.0 mm 0.01 in0.3 mm
10:09 AM 53.7°F12.1°C 80.8°F27.1°C - Calm Calm -- 29.81 in1009.5 mb 0.00 in0.0 mm 0.00 in0.0 mm 0.01 in0.3 mm
10:14 AM 53.7°F12.1°C 80.7°F27.1°C - Calm Calm -- 29.81 in1009.5 mb 0.00 in0.0 mm 0.00 in0.0 mm 0.01 in0.3 mm
10:19 AM 53.7°F12.1°C 80.8°F27.1°C - Calm Calm -- 29.81 in1009.5 mb 0.00 in0.0 mm 0.00 in0.0 mm 0.01 in0.3 mm
10:24 AM 53.8°F12.1°C 81.0°F27.2°C - Calm Calm -- 29.80 in1009.1 mb 0.00 in0.0 mm 0.00 in0.0 mm 0.01 in0.3 mm
10:29 AM 53.8°F12.1°C 81.0°F27.2°C - Calm Calm -- 29.80 in1009.1 mb 0.00 in0.0 mm 0.00 in0.0 mm 0.01 in0.3 mm
10:34 AM 53.9°F12.2°C 81.1°F27.3°C - Calm Calm -- 29.80 in1009.1 mb 0.00 in0.0 mm 0.00 in0.0 mm 0.01 in0.3 mm
10:39 AM 53.9°F12.2°C 81.1°F27.3°C - Calm Calm -- 29.80 in1009.1 mb 0.00 in0.0 mm 0.00 in0.0 mm 0.01 in0.3 mm
10:44 AM 54.0°F12.2°C 81.1°F27.3°C - Calm Calm -- 29.80 in1009.1 mb 0.00 in0.0 mm 0.00 in0.0 mm 0.01 in0.3 mm
10:49 AM 54.2°F12.3°C 81.4°F27.4°C - Calm Calm -- 29.80 in1009.1 mb 0.00 in0.0 mm 0.00 in0.0 mm 0.01 in0.3 mm
10:54 AM 54.5°F12.5°C 81.7°F27.6°C - Calm Calm -- 29.80 in1009.1 mb 0.00 in0.0 mm 0.00 in0.0 mm 0.01 in0.3 mm
10:59 AM 54.9°F12.7°C 82.2°F27.9°C - Calm Calm -- 29.80 in1009.1 mb 0.00 in0.0 mm 0.00 in0.0 mm 0.01 in0.3 mm
11:04 AM 55.0°F12.8°C 82.2°F27.9°C - Calm Calm -- 29.79 in1008.8 mb 0.00 in0.0 mm 0.00 in0.0 mm 0.01 in0.3 mm
11:09 AM 55.0°F12.8°C 82.2°F27.9°C - Calm Calm -- 29.79 in1008.8 mb 0.00 in0.0 mm 0.00 in0.0 mm 0.01 in0.3 mm
11:14 AM 55.2°F12.9°C 82.5°F28.1°C - Calm Calm -- 29.79 in1008.8 mb 0.00 in0.0 mm 0.00 in0.0 mm 0.01 in0.3 mm
11:19 AM 55.0°F12.8°C 82.3°F27.9°C - Calm Calm -- 29.79 in1008.8 mb 0.00 in0.0 mm 0.00 in0.0 mm 0.01 in0.3 mm
11:25 AM 55.0°F12.8°C 82.3°F27.9°C - Calm Calm -- 29.78 in1008.5 mb 0.00 in0.0 mm 0.00 in0.0 mm 0.01 in0.3 mm
11:29 AM 54.9°F12.7°C 82.2°F27.9°C - Calm Calm -- 29.78 in1008.5 mb 0.00 in0.0 mm 0.00 in0.0 mm 0.01 in0.3 mm
11:34 AM 54.9°F12.7°C 82.2°F27.9°C - Calm Calm -- 29.78 in1008.5 mb 0.00 in0.0 mm 0.00 in0.0 mm 0.01 in0.3 mm
11:39 AM 54.9°F12.7°C 82.2°F27.9°C - Calm Calm -- 29.78 in1008.5 mb 0.00 in0.0 mm 0.00 in0.0 mm 0.01 in0.3 mm
11:44 AM 54.7°F12.6°C 82.0°F27.8°C - Calm Calm -- 29.78 in1008.5 mb 0.00 in0.0 mm 0.00 in0.0 mm 0.01 in0.3 mm
11:49 AM 54.8°F12.7°C 82.1°F27.8°C - Calm Calm -- 29.78 in1008.5 mb 0.00 in0.0 mm 0.00 in0.0 mm 0.01 in0.3 mm
11:54 AM 54.7°F12.6°C 81.9°F27.7°C - Calm Calm -- 29.78 in1008.5 mb 0.00 in0.0 mm 0.00 in0.0 mm 0.01 in0.3 mm
11:57 AM 54.7°F12.6°C 81.9°F27.7°C - Calm Calm -- 29.78 in1008.5 mb 0.00 in0.0 mm 0.00 in0.0 mm 0.01 in0.3 mm
12:04 PM 54.6°F12.6°C 81.7°F27.6°C - Calm Calm -- 29.77 in1008.1 mb 0.00 in0.0 mm 0.00 in0.0 mm 0.01 in0.3 mm
12:09 PM 54.6°F12.6°C 81.9°F27.7°C - Calm Calm -- 29.76 in1007.8 mb 0.00 in0.0 mm 0.00 in0.0 mm 0.01 in0.3 mm
12:14 PM 54.7°F12.6°C 82.0°F27.8°C - Calm Calm -- 29.76 in1007.8 mb 0.00 in0.0 mm 0.00 in0.0 mm 0.01 in0.3 mm
12:19 PM 54.8°F12.7°C 82.1°F27.8°C - Calm Calm -- 29.76 in1007.8 mb 0.00 in0.0 mm 0.00 in0.0 mm 0.01 in0.3 mm
12:24 PM 54.8°F12.7°C 82.1°F27.8°C - Calm Calm -- 29.75 in1007.5 mb 0.00 in0.0 mm 0.00 in0.0 mm 0.01 in0.3 mm
12:29 PM 54.7°F12.6°C 82.0°F27.8°C - Calm Calm -- 29.75 in1007.5 mb 0.00 in0.0 mm 0.00 in0.0 mm 0.01 in0.3 mm
12:34 PM 55.0°F12.8°C 82.3°F27.9°C - Calm Calm -- 29.75 in1007.5 mb 0.00 in0.0 mm 0.00 in0.0 mm 0.01 in0.3 mm
12:39 PM 55.3°F12.9°C 82.6°F28.1°C - Calm Calm -- 29.74 in1007.1 mb 0.00 in0.0 mm 0.00 in0.0 mm 0.01 in0.3 mm
12:44 PM 55.5°F13.1°C 82.9°F28.3°C - Calm Calm -- 29.73 in1006.8 mb 0.00 in0.0 mm 0.00 in0.0 mm 0.01 in0.3 mm
12:49 PM 55.5°F13.1°C 82.9°F28.3°C - Calm Calm -- 29.72 in1006.4 mb 0.00 in0.0 mm 0.00 in0.0 mm 0.01 in0.3 mm
12:54 PM 55.6°F13.1°C 83.0°F28.3°C - Calm Calm -- 29.72 in1006.4 mb 0.00 in0.0 mm 0.00 in0.0 mm 0.01 in0.3 mm
12:59 PM 55.7°F13.2°C 83.1°F28.4°C - Calm Calm -- 29.73 in1006.8 mb 0.00 in0.0 mm 0.00 in0.0 mm 0.01 in0.3 mm
01:04 PM 55.7°F13.2°C 83.1°F28.4°C - Calm Calm -- 29.73 in1006.8 mb 0.00 in0.0 mm 0.00 in0.0 mm 0.01 in0.3 mm
01:09 PM 55.7°F13.2°C 83.1°F28.4°C - Calm Calm -- 29.72 in1006.4 mb 0.00 in0.0 mm 0.00 in0.0 mm 0.01 in0.3 mm
01:14 PM 55.7°F13.2°C 83.1°F28.4°C - Calm Calm -- 29.72 in1006.4 mb 0.00 in0.0 mm 0.00 in0.0 mm 0.01 in0.3 mm
01:19 PM 55.6°F13.1°C 83.0°F28.3°C - Calm Calm -- 29.72 in1006.4 mb 0.00 in0.0 mm 0.00 in0.0 mm 0.01 in0.3 mm
01:24 PM 55.6°F13.1°C 82.9°F28.3°C - Calm Calm -- 29.72 in1006.4 mb 0.00 in0.0 mm 0.00 in0.0 mm 0.01 in0.3 mm
01:29 PM 55.5°F13.1°C 82.8°F28.2°C - Calm Calm -- 29.71 in1006.1 mb 0.00 in0.0 mm 0.00 in0.0 mm 0.01 in0.3 mm
01:34 PM 55.5°F13.1°C 82.9°F28.3°C - Calm Calm -- 29.71 in1006.1 mb 0.00 in0.0 mm 0.00 in0.0 mm 0.01 in0.3 mm
01:39 PM 55.7°F13.2°C 83.1°F28.4°C - Calm Calm -- 29.71 in1006.1 mb 0.00 in0.0 mm 0.00 in0.0 mm 0.01 in0.3 mm
01:44 PM 55.9°F13.3°C 83.2°F28.4°C - Calm Calm -- 29.71 in1006.1 mb 0.00 in0.0 mm 0.00 in0.0 mm 0.01 in0.3 mm
01:49 PM 56.0°F13.3°C 83.3°F28.5°C - Calm Calm -- 29.71 in1006.1 mb 0.00 in0.0 mm 0.00 in0.0 mm 0.01 in0.3 mm
01:54 PM 56.1°F13.4°C 83.5°F28.6°C - Calm Calm -- 29.70 in1005.8 mb 0.00 in0.0 mm 0.00 in0.0 mm 0.01 in0.3 mm
01:59 PM 56.0°F13.3°C 83.4°F28.6°C - Calm Calm -- 29.70 in1005.8 mb 0.00 in0.0 mm 0.00 in0.0 mm 0.01 in0.3 mm
02:04 PM 56.0°F13.3°C 83.3°F28.5°C - Calm Calm -- 29.70 in1005.8 mb 0.00 in0.0 mm 0.00 in0.0 mm 0.01 in0.3 mm
02:09 PM 56.1°F13.4°C 83.4°F28.6°C - Calm Calm -- 29.70 in1005.8 mb 0.00 in0.0 mm 0.00 in0.0 mm 0.01 in0.3 mm
02:14 PM 56.1°F13.4°C 83.4°F28.6°C - Calm Calm -- 29.70 in1005.8 mb 0.00 in0.0 mm 0.00 in0.0 mm 0.01 in0.3 mm
02:19 PM 56.1°F13.4°C 83.4°F28.6°C - Calm Calm -- 29.69 in1005.4 mb 0.00 in0.0 mm 0.00 in0.0 mm 0.01 in0.3 mm
02:25 PM 56.1°F13.4°C 83.5°F28.6°C - Calm Calm -- 29.69 in1005.4 mb 0.00 in0.0 mm 0.00 in0.0 mm 0.01 in0.3 mm
02:29 PM 56.2°F13.4°C 83.7°F28.7°C - Calm Calm -- 29.69 in1005.4 mb 0.00 in0.0 mm 0.00 in0.0 mm 0.01 in0.3 mm
02:34 PM 56.2°F13.4°C 83.7°F28.7°C - Calm Calm -- 29.69 in1005.4 mb 0.00 in0.0 mm 0.00 in0.0 mm 0.01 in0.3 mm
02:39 PM 56.3°F13.5°C 83.7°F28.7°C - Calm Calm -- 29.69 in1005.4 mb 0.00 in0.0 mm 0.00 in0.0 mm 0.01 in0.3 mm
02:44 PM 56.5°F13.6°C 84.0°F28.9°C - Calm Calm -- 29.69 in1005.4 mb 0.00 in0.0 mm 0.00 in0.0 mm 0.01 in0.3 mm
02:49 PM 56.6°F13.7°C 84.1°F28.9°C - Calm Calm -- 29.69 in1005.4 mb 0.00 in0.0 mm 0.00 in0.0 mm 0.01 in0.3 mm
02:54 PM 56.7°F13.7°C 84.1°F28.9°C - Calm Calm -- 29.68 in1005.1 mb 0.00 in0.0 mm 0.00 in0.0 mm 0.01 in0.3 mm
03:00 PM 56.8°F13.8°C 84.3°F29.1°C - Calm Calm -- 29.68 in1005.1 mb 0.00 in0.0 mm 0.00 in0.0 mm 0.01 in0.3 mm
03:04 PM 57.0°F13.9°C 84.4°F29.1°C - Calm Calm -- 29.68 in1005.1 mb 0.00 in0.0 mm 0.00 in0.0 mm 0.01 in0.3 mm
03:09 PM 57.1°F13.9°C 84.7°F29.3°C - Calm Calm -- 29.68 in1005.1 mb 0.00 in0.0 mm 0.00 in0.0 mm 0.01 in0.3 mm
03:14 PM 57.2°F14.0°C 84.7°F29.3°C - Calm Calm -- 29.68 in1005.1 mb 0.00 in0.0 mm 0.00 in0.0 mm 0.01 in0.3 mm
03:19 PM 57.2°F14.0°C 84.8°F29.3°C - Calm Calm -- 29.68 in1005.1 mb 0.00 in0.0 mm 0.00 in0.0 mm 0.01 in0.3 mm
03:24 PM 57.2°F14.0°C 84.7°F29.3°C - Calm Calm -- 29.68 in1005.1 mb 0.00 in0.0 mm 0.00 in0.0 mm 0.01 in0.3 mm
03:29 PM 57.1°F13.9°C 84.7°F29.3°C - Calm Calm -- 29.68 in1005.1 mb 0.00 in0.0 mm 0.00 in0.0 mm 0.01 in0.3 mm
03:34 PM 57.0°F13.9°C 84.6°F29.2°C - Calm Calm -- 29.69 in1005.4 mb 0.00 in0.0 mm 0.00 in0.0 mm 0.02 in0.5 mm
03:39 PM 56.8°F13.8°C 84.3°F29.1°C - Calm Calm -- 29.68 in1005.1 mb 0.00 in0.0 mm 0.00 in0.0 mm 0.02 in0.5 mm
03:44 PM 56.7°F13.7°C 84.2°F29.0°C - Calm Calm -- 29.68 in1005.1 mb 0.00 in0.0 mm 0.00 in0.0 mm 0.03 in0.8 mm
03:49 PM 56.7°F13.7°C 84.2°F29.0°C - Calm Calm -- 29.68 in1005.1 mb 0.00 in0.0 mm 0.00 in0.0 mm 0.03 in0.8 mm
03:54 PM 56.6°F13.7°C 84.1°F28.9°C - Calm Calm -- 29.68 in1005.1 mb 0.00 in0.0 mm 0.00 in0.0 mm 0.04 in1.0 mm
03:59 PM 56.6°F13.7°C 84.1°F28.9°C - Calm Calm -- 29.68 in1005.1 mb 0.00 in0.0 mm 0.00 in0.0 mm 0.07 in1.8 mm
04:04 PM 56.6°F13.7°C 84.1°F28.9°C - Calm Calm -- 29.68 in1005.1 mb 0.00 in0.0 mm 0.00 in0.0 mm 0.08 in2.0 mm
04:09 PM 56.7°F13.7°C 84.2°F29.0°C - Calm Calm -- 29.68 in1005.1 mb 0.00 in0.0 mm 0.00 in0.0 mm 0.09 in2.3 mm
04:14 PM 56.8°F13.8°C 84.3°F29.1°C - Calm Calm -- 29.68 in1005.1 mb 0.00 in0.0 mm 0.00 in0.0 mm 0.10 in2.5 mm
04:19 PM 57.0°F13.9°C 84.4°F29.1°C - Calm Calm -- 29.67 in1004.7 mb 0.00 in0.0 mm 0.00 in0.0 mm 0.11 in2.8 mm
04:24 PM 57.1°F13.9°C 84.7°F29.3°C - Calm Calm -- 29.67 in1004.7 mb 0.00 in0.0 mm 0.00 in0.0 mm 0.11 in2.8 mm
04:29 PM 57.2°F14.0°C 84.8°F29.3°C - Calm Calm -- 29.67 in1004.7 mb 0.00 in0.0 mm 0.00 in0.0 mm 0.11 in2.8 mm
04:34 PM 57.2°F14.0°C 84.7°F29.3°C - Calm Calm -- 29.67 in1004.7 mb 0.00 in0.0 mm 0.00 in0.0 mm 0.11 in2.8 mm
04:39 PM 57.2°F14.0°C 84.8°F29.3°C - Calm Calm -- 29.67 in1004.7 mb 0.00 in0.0 mm 0.00 in0.0 mm 0.11 in2.8 mm
04:44 PM 57.5°F14.2°C 85.1°F29.5°C - Calm Calm -- 29.67 in1004.7 mb 0.00 in0.0 mm 0.00 in0.0 mm 0.11 in2.8 mm
04:50 PM 57.7°F14.3°C 85.3°F29.6°C - Calm Calm -- 29.67 in1004.7 mb 0.00 in0.0 mm 0.00 in0.0 mm 0.11 in2.8 mm
04:54 PM 57.7°F14.3°C 85.2°F29.6°C - Calm Calm -- 29.66 in1004.4 mb 0.00 in0.0 mm 0.00 in0.0 mm 0.11 in2.8 mm
04:59 PM 57.7°F14.3°C 85.3°F29.6°C - Calm Calm -- 29.66 in1004.4 mb 0.00 in0.0 mm 0.00 in0.0 mm 0.11 in2.8 mm
05:04 PM 57.8°F14.3°C 85.5°F29.7°C - Calm Calm -- 29.66 in1004.4 mb 0.00 in0.0 mm 0.00 in0.0 mm 0.11 in2.8 mm
05:09 PM 57.9°F14.4°C 85.5°F29.7°C - Calm Calm -- 29.66 in1004.4 mb 0.00 in0.0 mm 0.00 in0.0 mm 0.11 in2.8 mm
05:14 PM 57.9°F14.4°C 85.6°F29.8°C - Calm Calm -- 29.66 in1004.4 mb 0.00 in0.0 mm 0.00 in0.0 mm 0.11 in2.8 mm
05:19 PM 58.0°F14.4°C 85.7°F29.8°C - Calm Calm -- 29.66 in1004.4 mb 0.00 in0.0 mm 0.00 in0.0 mm 0.11 in2.8 mm
05:24 PM 58.0°F14.4°C 85.7°F29.8°C - Calm Calm -- 29.66 in1004.4 mb 0.00 in0.0 mm 0.00 in0.0 mm 0.11 in2.8 mm
05:29 PM 58.1°F14.5°C 85.8°F29.9°C - Calm Calm -- 29.66 in1004.4 mb 0.00 in0.0 mm 0.00 in0.0 mm 0.11 in2.8 mm
05:34 PM 58.0°F14.4°C 85.6°F29.8°C - Calm Calm -- 29.66 in1004.4 mb 0.00 in0.0 mm 0.00 in0.0 mm 0.11 in2.8 mm
05:39 PM 58.2°F14.6°C 85.9°F29.9°C - Calm Calm -- 29.66 in1004.4 mb 0.00 in0.0 mm 0.00 in0.0 mm 0.11 in2.8 mm
05:44 PM 58.2°F14.6°C 85.9°F29.9°C - Calm Calm -- 29.66 in1004.4 mb 0.00 in0.0 mm 0.00 in0.0 mm 0.11 in2.8 mm
05:49 PM 58.2°F14.6°C 85.9°F29.9°C - Calm Calm -- 29.66 in1004.4 mb 0.00 in0.0 mm 0.00 in0.0 mm 0.11 in2.8 mm
05:54 PM 58.2°F14.6°C 85.9°F29.9°C - Calm Calm -- 29.66 in1004.4 mb 0.00 in0.0 mm 0.00 in0.0 mm 0.11 in2.8 mm
05:59 PM 58.2°F14.6°C 85.9°F29.9°C - Calm Calm -- 29.66 in1004.4 mb 0.00 in0.0 mm 0.00 in0.0 mm 0.11 in2.8 mm
06:04 PM 58.3°F14.6°C 86.0°F30.0°C - Calm Calm -- 29.66 in1004.4 mb 0.00 in0.0 mm 0.00 in0.0 mm 0.11 in2.8 mm
06:09 PM 58.4°F14.7°C 86.1°F30.1°C - Calm Calm -- 29.66 in1004.4 mb 0.00 in0.0 mm 0.00 in0.0 mm 0.11 in2.8 mm
06:14 PM 58.5°F14.7°C 86.2°F30.1°C - Calm Calm -- 29.66 in1004.4 mb 0.00 in0.0 mm 0.00 in0.0 mm 0.11 in2.8 mm
06:19 PM 58.6°F14.8°C 86.4°F30.2°C - Calm Calm -- 29.66 in1004.4 mb 0.00 in0.0 mm 0.00 in0.0 mm 0.11 in2.8 mm
06:24 PM 58.6°F14.8°C 86.4°F30.2°C - Calm Calm -- 29.66 in1004.4 mb 0.00 in0.0 mm 0.00 in0.0 mm 0.11 in2.8 mm
06:29 PM 58.8°F14.9°C 86.6°F30.3°C - Calm Calm -- 29.66 in1004.4 mb 0.00 in0.0 mm 0.00 in0.0 mm 0.11 in2.8 mm
06:34 PM 59.1°F15.1°C 86.9°F30.5°C - Calm Calm -- 29.66 in1004.4 mb 0.00 in0.0 mm 0.00 in0.0 mm 0.11 in2.8 mm
06:39 PM 59.2°F15.1°C 87.0°F30.6°C - Calm Calm -- 29.66 in1004.4 mb 0.00 in0.0 mm 0.00 in0.0 mm 0.11 in2.8 mm
06:44 PM 59.2°F15.1°C 86.9°F30.5°C - Calm Calm -- 29.66 in1004.4 mb 0.00 in0.0 mm 0.00 in0.0 mm 0.11 in2.8 mm
06:49 PM 59.3°F15.2°C 87.1°F30.6°C - Calm Calm -- 29.66 in1004.4 mb 0.00 in0.0 mm 0.00 in0.0 mm 0.11 in2.8 mm
06:54 PM 59.3°F15.2°C 87.1°F30.6°C - Calm Calm -- 29.65 in1004.1 mb 0.00 in0.0 mm 0.00 in0.0 mm 0.11 in2.8 mm
06:59 PM 59.3°F15.2°C 87.0°F30.6°C - Calm Calm -- 29.66 in1004.4 mb 0.00 in0.0 mm 0.00 in0.0 mm 0.11 in2.8 mm
07:04 PM 59.5°F15.3°C 87.3°F30.7°C - Calm Calm -- 29.66 in1004.4 mb 0.00 in0.0 mm 0.00 in0.0 mm 0.11 in2.8 mm
07:09 PM 59.6°F15.3°C 87.5°F30.8°C - Calm Calm -- 29.65 in1004.1 mb 0.00 in0.0 mm 0.00 in0.0 mm 0.11 in2.8 mm
07:14 PM 59.7°F15.4°C 87.6°F30.9°C - Calm Calm -- 29.65 in1004.1 mb 0.00 in0.0 mm 0.00 in0.0 mm 0.11 in2.8 mm
07:19 PM 59.7°F15.4°C 87.6°F30.9°C - Calm Calm -- 29.65 in1004.1 mb 0.00 in0.0 mm 0.00 in0.0 mm 0.11 in2.8 mm
07:24 PM 59.7°F15.4°C 87.6°F30.9°C - Calm Calm -- 29.65 in1004.1 mb 0.00 in0.0 mm 0.00 in0.0 mm 0.11 in2.8 mm
07:29 PM 59.7°F15.4°C 87.6°F30.9°C - Calm Calm -- 29.65 in1004.1 mb 0.00 in0.0 mm 0.00 in0.0 mm 0.11 in2.8 mm
07:34 PM 59.7°F15.4°C 87.5°F30.8°C - Calm Calm -- 29.65 in1004.1 mb 0.00 in0.0 mm 0.00 in0.0 mm 0.11 in2.8 mm
07:39 PM 59.8°F15.4°C 87.7°F30.9°C - Calm Calm -- 29.65 in1004.1 mb 0.00 in0.0 mm 0.00 in0.0 mm 0.11 in2.8 mm
07:44 PM 59.9°F15.5°C 87.8°F31.0°C - Calm Calm -- 29.66 in1004.4 mb 0.00 in0.0 mm 0.00 in0.0 mm 0.11 in2.8 mm
07:49 PM 60.0°F15.6°C 87.8°F31.0°C - Calm Calm -- 29.66 in1004.4 mb 0.00 in0.0 mm 0.00 in0.0 mm 0.11 in2.8 mm
07:54 PM 60.2°F15.7°C 88.2°F31.2°C - Calm Calm -- 29.66 in1004.4 mb 0.00 in0.0 mm 0.00 in0.0 mm 0.11 in2.8 mm
07:59 PM 60.2°F15.7°C 88.2°F31.2°C - Calm Calm -- 29.66 in1004.4 mb 0.00 in0.0 mm 0.00 in0.0 mm 0.11 in2.8 mm
08:04 PM 60.2°F15.7°C 88.2°F31.2°C - Calm Calm -- 29.66 in1004.4 mb 0.00 in0.0 mm 0.00 in0.0 mm 0.11 in2.8 mm
08:09 PM 60.1°F15.6°C 88.1°F31.2°C - Calm Calm -- 29.66 in1004.4 mb 0.00 in0.0 mm 0.00 in0.0 mm 0.11 in2.8 mm
08:14 PM 60.0°F15.6°C 87.9°F31.1°C - 1.1 mph WNW1.8 kmh WNW 4.0 mph6.4 kmh 29.66 in1004.4 mb 0.00 in0.0 mm 0.00 in0.0 mm 0.11 in2.8 mm
08:19 PM 59.8°F15.4°C 87.7°F30.9°C - 5.5 mph NW8.9 kmh NW 9.3 mph15.0 kmh 29.66 in1004.4 mb 0.00 in0.0 mm 0.00 in0.0 mm 0.11 in2.8 mm
08:24 PM 59.7°F15.4°C 87.6°F30.9°C - 14.9 mph WNW24.0 kmh WNW 17.5 mph28.2 kmh 29.67 in1004.7 mb 0.00 in0.0 mm 0.00 in0.0 mm 0.11 in2.8 mm
08:29 PM 59.6°F15.3°C 87.5°F30.8°C - 12.0 mph WNW19.3 kmh WNW 14.1 mph22.7 kmh 29.67 in1004.7 mb 0.00 in0.0 mm 0.00 in0.0 mm 0.11 in2.8 mm
08:34 PM 59.6°F15.3°C 87.5°F30.8°C - Calm Calm -- 29.68 in1005.1 mb 0.00 in0.0 mm 0.00 in0.0 mm 0.11 in2.8 mm
08:39 PM 59.6°F15.3°C 87.5°F30.8°C - Calm Calm -- 29.68 in1005.1 mb 0.00 in0.0 mm 0.00 in0.0 mm 0.11 in2.8 mm
08:44 PM 59.3°F15.2°C 87.1°F30.6°C - Calm Calm -- 29.68 in1005.1 mb 0.00 in0.0 mm 0.00 in0.0 mm 0.11 in2.8 mm
08:49 PM 59.2°F15.1°C 87.0°F30.6°C - Calm Calm -- 29.68 in1005.1 mb 0.00 in0.0 mm 0.00 in0.0 mm 0.11 in2.8 mm
08:54 PM 59.1°F15.1°C 86.9°F30.5°C - Calm Calm -- 29.69 in1005.4 mb 0.00 in0.0 mm 0.00 in0.0 mm 0.11 in2.8 mm
08:59 PM 59.0°F15.0°C 86.8°F30.4°C - Calm Calm -- 29.69 in1005.4 mb 0.00 in0.0 mm 0.00 in0.0 mm 0.11 in2.8 mm
09:04 PM 59.0°F15.0°C 86.7°F30.4°C - 0.2 mph WNW0.3 kmh WNW 2.8 mph4.5 kmh 29.69 in1005.4 mb 0.00 in0.0 mm 0.00 in0.0 mm 0.11 in2.8 mm
09:09 PM 58.8°F14.9°C 86.6°F30.3°C - 8.4 mph WNW13.5 kmh WNW 13.5 mph21.7 kmh 29.70 in1005.8 mb 0.00 in0.0 mm 0.00 in0.0 mm 0.11 in2.8 mm
09:14 PM 58.7°F14.8°C 86.5°F30.3°C - 12.0 mph W19.3 kmh W 14.0 mph22.5 kmh 29.70 in1005.8 mb 0.00 in0.0 mm 0.00 in0.0 mm 0.11 in2.8 mm
09:19 PM 58.7°F14.8°C 86.4°F30.2°C - 8.6 mph WNW13.8 kmh WNW 12.1 mph19.5 kmh 29.71 in1006.1 mb 0.00 in0.0 mm 0.00 in0.0 mm 0.11 in2.8 mm
09:24 PM 58.6°F14.8°C 86.4°F30.2°C - 8.8 mph WNW14.2 kmh WNW 11.7 mph18.8 kmh 29.71 in1006.1 mb 0.00 in0.0 mm 0.00 in0.0 mm 0.11 in2.8 mm
09:29 PM 58.5°F14.7°C 86.2°F30.1°C - 10.4 mph WNW16.7 kmh WNW 13.1 mph21.1 kmh 29.71 in1006.1 mb 0.00 in0.0 mm 0.00 in0.0 mm 0.11 in2.8 mm
09:35 PM 58.2°F14.6°C 85.9°F29.9°C - 13.5 mph NW21.7 kmh NW 17.9 mph28.8 kmh 29.71 in1006.1 mb 0.00 in0.0 mm 0.00 in0.0 mm 0.11 in2.8 mm
09:39 PM 58.0°F14.4°C 85.7°F29.8°C - 10.4 mph NW16.7 kmh NW 15.2 mph24.5 kmh 29.71 in1006.1 mb 0.00 in0.0 mm 0.00 in0.0 mm 0.11 in2.8 mm
09:44 PM 57.8°F14.3°C 85.3°F29.6°C - 11.0 mph NW17.7 kmh NW 12.1 mph19.5 kmh 29.71 in1006.1 mb 0.00 in0.0 mm 0.00 in0.0 mm 0.11 in2.8 mm
09:49 PM 57.7°F14.3°C 85.3°F29.6°C - 8.7 mph NW14.0 kmh NW 10.7 mph17.2 kmh 29.71 in1006.1 mb 0.00 in0.0 mm 0.00 in0.0 mm 0.11 in2.8 mm
09:54 PM 57.7°F14.3°C 85.3°F29.6°C - 9.7 mph NW15.6 kmh NW 10.8 mph17.4 kmh 29.71 in1006.1 mb 0.00 in0.0 mm 0.00 in0.0 mm 0.11 in2.8 mm
09:59 PM 57.5°F14.2°C 85.1°F29.5°C - 9.4 mph WNW15.1 kmh WNW 10.8 mph17.4 kmh 29.71 in1006.1 mb 0.00 in0.0 mm 0.00 in0.0 mm 0.11 in2.8 mm
10:04 PM 57.5°F14.2°C 85.1°F29.5°C - 9.7 mph WNW15.6 kmh WNW 11.2 mph18.0 kmh 29.71 in1006.1 mb 0.00 in0.0 mm 0.00 in0.0 mm 0.11 in2.8 mm
10:09 PM 57.3°F14.1°C 84.9°F29.4°C - 7.8 mph WNW12.6 kmh WNW 9.3 mph15.0 kmh 29.71 in1006.1 mb 0.00 in0.0 mm 0.00 in0.0 mm 0.11 in2.8 mm
10:14 PM 57.3°F14.1°C 84.8°F29.3°C - 6.4 mph W10.3 kmh W 8.9 mph14.3 kmh 29.72 in1006.4 mb 0.00 in0.0 mm 0.00 in0.0 mm 0.11 in2.8 mm
10:19 PM 57.2°F14.0°C 84.8°F29.3°C - 6.6 mph W10.6 kmh W 8.1 mph13.0 kmh 29.72 in1006.4 mb 0.00 in0.0 mm 0.00 in0.0 mm 0.11 in2.8 mm
10:24 PM 57.2°F14.0°C 84.7°F29.3°C - 7.3 mph W11.7 kmh W 8.9 mph14.3 kmh 29.72 in1006.4 mb 0.00 in0.0 mm 0.00 in0.0 mm 0.11 in2.8 mm
10:29 PM 57.2°F14.0°C 84.8°F29.3°C - 7.4 mph W11.9 kmh W 9.3 mph15.0 kmh 29.73 in1006.8 mb 0.00 in0.0 mm 0.00 in0.0 mm 0.11 in2.8 mm
10:34 PM 57.2°F14.0°C 84.8°F29.3°C - 3.2 mph W5.1 kmh W 6.1 mph9.8 kmh 29.73 in1006.8 mb 0.00 in0.0 mm 0.00 in0.0 mm 0.11 in2.8 mm
10:39 PM 57.2°F14.0°C 84.8°F29.3°C - 3.2 mph W5.1 kmh W 7.6 mph12.2 kmh 29.73 in1006.8 mb 0.00 in0.0 mm 0.00 in0.0 mm 0.11 in2.8 mm
10:44 PM 57.1°F13.9°C 84.7°F29.3°C - 6.7 mph W10.8 kmh W 9.4 mph15.1 kmh 29.73 in1006.8 mb 0.00 in0.0 mm 0.00 in0.0 mm 0.11 in2.8 mm
10:49 PM 56.9°F13.8°C 84.4°F29.1°C - 6.4 mph WNW10.3 kmh WNW 9.3 mph15.0 kmh 29.73 in1006.8 mb 0.00 in0.0 mm 0.00 in0.0 mm 0.11 in2.8 mm
10:54 PM 56.7°F13.7°C 84.2°F29.0°C - 2.0 mph WNW3.2 kmh WNW 7.8 mph12.6 kmh 29.73 in1006.8 mb 0.00 in0.0 mm 0.00 in0.0 mm 0.11 in2.8 mm
10:59 PM 56.7°F13.7°C 84.2°F29.0°C - 11.2 mph WNW18.0 kmh WNW 15.6 mph25.1 kmh 29.73 in1006.8 mb 0.00 in0.0 mm 0.00 in0.0 mm 0.11 in2.8 mm
11:04 PM 56.7°F13.7°C 84.2°F29.0°C - 2.4 mph WNW3.9 kmh WNW 3.5 mph5.6 kmh 29.73 in1006.8 mb 0.00 in0.0 mm 0.00 in0.0 mm 0.11 in2.8 mm
11:09 PM 56.7°F13.7°C 84.2°F29.0°C - Calm Calm -- 29.73 in1006.8 mb 0.00 in0.0 mm 0.00 in0.0 mm 0.11 in2.8 mm
11:14 PM 56.6°F13.7°C 84.1°F28.9°C - Calm Calm -- 29.73 in1006.8 mb 0.00 in0.0 mm 0.00 in0.0 mm 0.11 in2.8 mm
11:19 PM 56.6°F13.7°C 84.0°F28.9°C - Calm Calm -- 29.73 in1006.8 mb 0.00 in0.0 mm 0.00 in0.0 mm 0.11 in2.8 mm
11:24 PM 56.4°F13.6°C 83.9°F28.8°C - Calm Calm -- 29.74 in1007.1 mb 0.00 in0.0 mm 0.00 in0.0 mm 0.11 in2.8 mm
11:29 PM 56.3°F13.5°C 83.8°F28.8°C - Calm Calm -- 29.74 in1007.1 mb 0.00 in0.0 mm 0.00 in0.0 mm 0.11 in2.8 mm
11:34 PM 56.3°F13.5°C 83.8°F28.8°C - Calm Calm -- 29.74 in1007.1 mb 0.00 in0.0 mm 0.00 in0.0 mm 0.11 in2.8 mm
11:39 PM 56.3°F13.5°C 83.7°F28.7°C - Calm Calm -- 29.75 in1007.5 mb 0.00 in0.0 mm 0.00 in0.0 mm 0.11 in2.8 mm
11:44 PM 56.2°F13.4°C 83.7°F28.7°C - Calm Calm -- 29.75 in1007.5 mb 0.00 in0.0 mm 0.00 in0.0 mm 0.11 in2.8 mm
11:49 PM 56.2°F13.4°C 83.7°F28.7°C - Calm Calm -- 29.74 in1007.1 mb 0.00 in0.0 mm 0.00 in0.0 mm 0.11 in2.8 mm
11:54 PM 56.2°F13.4°C 83.5°F28.6°C - Calm Calm -- 29.75 in1007.5 mb 0.00 in0.0 mm 0.00 in0.0 mm 0.11 in2.8 mm